Time;durP1;ratioP1;P1;durP2;ratioP2;P2;SDS_P1;SDS_P2;PMS_P1;PMS_P2;Temp;Humidity;BMP_temperature;BMP_pressure;BME280_temperature;BME280_humidity;BME280_pressure;Samples;Min_cycle;Max_cycle;Signal;HPM_P1;HPM_P2
2022/07/13 00:02:52;;;;;;;9.32;3.85;;;;;;;;;;6199824;28;20019;-75
2022/07/13 00:05:52;;;;;;;8.87;3.23;;;;;;;;;;6201308;28;20018;-75
2022/07/13 00:08:52;;;;;;;8.23;3.23;;;;;;;;;;6202100;28;20038;-75
2022/07/13 00:11:52;;;;;;;10.00;3.40;;;;;;;;;;6206626;28;20109;-75
2022/07/13 00:14:52;;;;;;;7.95;4.03;;;;;;;;;;6200976;28;20378;-75
2022/07/13 00:17:53;;;;;;;10.30;4.27;;;;;;;;;;6201872;28;20026;-75
2022/07/13 00:20:53;;;;;;;9.60;4.73;;;;;;;;;;6200784;28;20022;-75
2022/07/13 00:23:53;;;;;;;11.00;4.03;;;;;;;;;;6201201;28;20014;-75
2022/07/13 00:26:53;;;;;;;10.17;4.93;;;;;;;;;;6202109;28;20034;-75
2022/07/13 00:29:54;;;;;;;10.77;3.55;;;;;;;;;;6199671;28;20629;-75
2022/07/13 00:32:54;;;;;;;10.40;4.60;;;;;;;;;;6204628;28;20422;-75
2022/07/13 00:35:54;;;;;;;9.93;3.97;;;;;;;;;;6200765;28;20045;-75
2022/07/13 00:38:55;;;;;;;8.57;3.65;;;;;;;;;;6200953;28;20026;-75
2022/07/13 00:41:55;;;;;;;10.40;3.37;;;;;;;;;;6200491;28;20033;-75
2022/07/13 00:44:55;;;;;;;7.67;3.40;;;;;;;;;;6200923;28;20022;-75
2022/07/13 00:47:56;;;;;;;12.83;3.67;;;;;;;;;;6212891;28;20097;-75
2022/07/13 00:50:57;;;;;;;9.98;3.45;;;;;;;;;;6200418;28;20022;-75
2022/07/13 00:53:57;;;;;;;10.10;3.20;;;;;;;;;;6201143;28;20054;-75
2022/07/13 00:56:58;;;;;;;9.63;3.20;;;;;;;;;;6204757;28;20022;-75
2022/07/13 00:59:59;;;;;;;7.53;3.40;;;;;;;;;;6196484;28;20026;-75
2022/07/13 01:02:59;;;;;;;4.88;3.00;;;;;;;;;;6199728;28;20261;-75
2022/07/13 01:05:59;;;;;;;6.50;2.70;;;;;;;;;;6200588;28;20085;-75
2022/07/13 01:09:00;;;;;;;6.95;3.22;;;;;;;;;;6199880;28;20340;-75
2022/07/13 01:12:00;;;;;;;10.95;2.92;;;;;;;;;;6198821;28;20061;-75
2022/07/13 01:15:00;;;;;;;7.27;2.97;;;;;;;;;;6196955;28;20023;-75
2022/07/13 01:18:01;;;;;;;9.07;3.70;;;;;;;;;;6200477;28;20025;-76
2022/07/13 01:21:01;;;;;;;4.95;2.38;;;;;;;;;;6203533;28;20034;-75
2022/07/13 01:24:02;;;;;;;8.75;2.88;;;;;;;;;;6200158;28;20053;-75
2022/07/13 01:27:02;;;;;;;7.32;2.30;;;;;;;;;;6207467;28;20057;-75
2022/07/13 01:30:03;;;;;;;4.67;2.63;;;;;;;;;;6205915;28;20014;-75
2022/07/13 01:33:04;;;;;;;4.25;2.35;;;;;;;;;;6197313;28;20024;-75
2022/07/13 01:36:04;;;;;;;6.00;2.45;;;;;;;;;;6199879;28;20026;-76
2022/07/13 01:39:05;;;;;;;5.85;2.63;;;;;;;;;;6193555;28;20105;-75
2022/07/13 01:42:05;;;;;;;5.28;2.25;;;;;;;;;;6198616;28;20026;-75
2022/07/13 01:45:07;;;;;;;5.43;2.95;;;;;;;;;;6199204;28;20535;-76
2022/07/13 01:48:07;;;;;;;2.88;2.30;;;;;;;;;;6198215;28;20022;-75
2022/07/13 01:51:07;;;;;;;14.90;3.08;;;;;;;;;;6200945;28;20394;-75
2022/07/13 01:54:07;;;;;;;4.35;2.30;;;;;;;;;;6205532;28;20026;-75
2022/07/13 01:57:08;;;;;;;7.20;2.43;;;;;;;;;;6199393;28;20441;-75
2022/07/13 02:00:08;;;;;;;4.67;2.13;;;;;;;;;;6197827;28;20331;-75
2022/07/13 02:03:08;;;;;;;5.35;2.53;;;;;;;;;;6199049;28;20360;-75
2022/07/13 02:06:09;;;;;;;9.87;2.37;;;;;;;;;;6202174;28;20105;-75
2022/07/13 02:09:09;;;;;;;3.87;2.30;;;;;;;;;;6197227;28;20014;-75
2022/07/13 02:12:09;;;;;;;3.63;1.90;;;;;;;;;;6199832;28;20085;-75
2022/07/13 02:15:10;;;;;;;3.25;2.03;;;;;;;;;;6197079;28;20026;-75
2022/07/13 02:18:10;;;;;;;5.30;1.70;;;;;;;;;;6198668;28;20010;-75
2022/07/13 02:21:12;;;;;;;4.40;2.40;;;;;;;;;;6197605;28;20030;-75
2022/07/13 02:24:12;;;;;;;5.00;2.00;;;;;;;;;;6197408;28;20026;-75
2022/07/13 02:27:13;;;;;;;5.00;2.15;;;;;;;;;;6202140;28;20498;-75
2022/07/13 02:30:13;;;;;;;4.53;1.60;;;;;;;;;;6199570;28;20285;-75
2022/07/13 02:33:14;;;;;;;10.38;2.22;;;;;;;;;;6202297;28;20054;-76
2022/07/13 02:36:14;;;;;;;6.85;2.47;;;;;;;;;;6198203;28;20033;-75
2022/07/13 02:39:14;;;;;;;4.90;2.40;;;;;;;;;;6190589;28;20164;-75
2022/07/13 02:42:14;;;;;;;4.57;2.22;;;;;;;;;;6214945;28;20033;-75
2022/07/13 02:45:14;;;;;;;5.53;1.92;;;;;;;;;;6198388;28;20040;-75
2022/07/13 02:48:15;;;;;;;6.47;2.23;;;;;;;;;;6194983;28;20363;-75
2022/07/13 02:51:15;;;;;;;4.47;2.67;;;;;;;;;;6197561;28;20265;-75
2022/07/13 02:54:16;;;;;;;3.13;1.85;;;;;;;;;;6197159;28;20744;-76
2022/07/13 02:57:16;;;;;;;3.45;2.80;;;;;;;;;;6212441;28;20026;-74
2022/07/13 03:00:16;;;;;;;4.50;2.10;;;;;;;;;;6196615;28;20069;-74
2022/07/13 03:03:17;;;;;;;5.35;2.25;;;;;;;;;;6198596;28;20033;-75
2022/07/13 03:06:17;;;;;;;5.95;3.10;;;;;;;;;;6200423;28;20266;-75
2022/07/13 03:09:17;;;;;;;4.23;2.47;;;;;;;;;;6200407;28;20017;-75
2022/07/13 03:12:17;;;;;;;5.68;2.15;;;;;;;;;;6195549;28;20262;-75
2022/07/13 03:15:18;;;;;;;2.58;2.03;;;;;;;;;;6197573;28;20046;-76
2022/07/13 03:18:18;;;;;;;4.18;2.13;;;;;;;;;;6190281;28;20033;-75
2022/07/13 03:21:19;;;;;;;4.73;2.63;;;;;;;;;;6211216;28;20026;-75
2022/07/13 03:24:20;;;;;;;8.90;2.50;;;;;;;;;;6201542;28;20328;-75
2022/07/13 03:27:20;;;;;;;6.65;2.75;;;;;;;;;;6217348;28;20261;-75
2022/07/13 03:30:20;;;;;;;5.85;2.75;;;;;;;;;;6197918;28;20034;-75
2022/07/13 03:33:20;;;;;;;4.60;2.35;;;;;;;;;;6197134;28;20030;-75
2022/07/13 03:36:20;;;;;;;7.32;2.42;;;;;;;;;;6195399;28;20022;-76
2022/07/13 03:39:21;;;;;;;8.40;2.85;;;;;;;;;;6196720;28;20105;-75
2022/07/13 03:42:21;;;;;;;6.07;2.38;;;;;;;;;;6211170;28;20034;-75
2022/07/13 03:45:21;;;;;;;7.25;2.55;;;;;;;;;;6201740;28;20026;-75
2022/07/13 03:48:21;;;;;;;5.97;3.00;;;;;;;;;;6212229;28;20027;-75
2022/07/13 03:51:21;;;;;;;3.40;2.25;;;;;;;;;;6199022;28;20029;-75
2022/07/13 03:54:22;;;;;;;7.35;2.92;;;;;;;;;;6198090;28;20061;-75
2022/07/13 03:57:22;;;;;;;3.67;2.17;;;;;;;;;;6198011;28;20023;-76
2022/07/13 04:00:22;;;;;;;5.35;2.55;;;;;;;;;;6195848;28;20030;-75
2022/07/13 04:03:22;;;;;;;6.70;3.73;;;;;;;;;;6196878;28;20033;-75
2022/07/13 04:06:23;;;;;;;4.65;2.42;;;;;;;;;;6190426;28;19994;-75
2022/07/13 04:09:23;;;;;;;5.95;2.70;;;;;;;;;;6196440;28;20022;-76
2022/07/13 04:12:23;;;;;;;8.23;2.53;;;;;;;;;;6206449;28;20022;-75
2022/07/13 04:15:23;;;;;;;6.88;2.55;;;;;;;;;;6200444;28;20022;-76
2022/07/13 04:18:24;;;;;;;5.07;2.30;;;;;;;;;;6197580;28;20014;-76
2022/07/13 04:21:24;;;;;;;4.70;2.47;;;;;;;;;;6195494;28;20033;-76
2022/07/13 04:24:24;;;;;;;8.77;2.33;;;;;;;;;;6198023;28;20542;-76
2022/07/13 04:27:24;;;;;;;3.78;2.20;;;;;;;;;;6199823;28;20034;-76
2022/07/13 04:30:25;;;;;;;5.33;2.53;;;;;;;;;;6204784;28;20056;-75
2022/07/13 04:33:25;;;;;;;5.10;2.65;;;;;;;;;;6197853;28;20564;-76
2022/07/13 04:36:25;;;;;;;2.90;2.07;;;;;;;;;;6200143;28;20050;-75
2022/07/13 04:39:25;;;;;;;5.63;2.60;;;;;;;;;;6200716;28;20030;-75
2022/07/13 04:42:25;;;;;;;4.07;2.30;;;;;;;;;;6211041;28;20053;-75
2022/07/13 04:45:25;;;;;;;2.90;1.83;;;;;;;;;;6206636;28;20053;-75
2022/07/13 04:48:26;;;;;;;4.97;2.15;;;;;;;;;;6208546;28;20104;-75
2022/07/13 04:51:26;;;;;;;2.73;1.90;;;;;;;;;;6204011;28;20414;-76
2022/07/13 04:54:26;;;;;;;4.40;2.10;;;;;;;;;;6206839;28;20137;-76
2022/07/13 04:57:26;;;;;;;6.17;2.50;;;;;;;;;;6211792;28;20382;-76
2022/07/13 05:00:26;;;;;;;3.85;2.25;;;;;;;;;;6203790;28;20026;-75
2022/07/13 05:03:27;;;;;;;6.60;2.70;;;;;;;;;;6200397;28;20006;-75
2022/07/13 05:06:27;;;;;;;5.87;2.30;;;;;;;;;;6211835;28;20030;-75
2022/07/13 05:09:27;;;;;;;7.20;2.63;;;;;;;;;;6197089;28;20030;-75
2022/07/13 05:12:28;;;;;;;6.70;2.77;;;;;;;;;;6202349;28;20026;-75
2022/07/13 05:15:28;;;;;;;6.00;3.10;;;;;;;;;;6197029;28;20044;-76
2022/07/13 05:18:28;;;;;;;4.63;2.63;;;;;;;;;;6197527;28;20129;-76
2022/07/13 05:21:28;;;;;;;4.43;2.40;;;;;;;;;;6201916;28;20037;-76
2022/07/13 05:24:28;;;;;;;5.73;2.30;;;;;;;;;;6201370;28;20047;-76
2022/07/13 05:27:29;;;;;;;6.70;2.17;;;;;;;;;;6198367;28;20014;-76
2022/07/13 05:30:29;;;;;;;6.03;2.87;;;;;;;;;;6205531;28;20037;-77
2022/07/13 05:33:30;;;;;;;7.07;2.20;;;;;;;;;;6199967;28;20038;-76
2022/07/13 05:36:30;;;;;;;7.90;3.10;;;;;;;;;;6199616;28;20386;-76
2022/07/13 05:39:30;;;;;;;5.95;2.17;;;;;;;;;;6198292;28;20022;-76
2022/07/13 05:42:30;;;;;;;5.25;2.60;;;;;;;;;;6197299;28;20026;-77
2022/07/13 05:45:30;;;;;;;2.83;1.92;;;;;;;;;;6197999;28;20029;-77
2022/07/13 05:48:31;;;;;;;4.47;2.50;;;;;;;;;;6209661;28;20113;-77
2022/07/13 05:51:31;;;;;;;4.30;2.40;;;;;;;;;;6197404;28;20026;-76
2022/07/13 05:54:32;;;;;;;5.60;2.20;;;;;;;;;;6200876;28;20451;-76
2022/07/13 05:57:32;;;;;;;3.17;1.70;;;;;;;;;;6202672;28;20137;-76
2022/07/13 06:00:32;;;;;;;5.97;1.57;;;;;;;;;;6191713;28;20030;-77
2022/07/13 06:03:32;;;;;;;3.80;1.90;;;;;;;;;;6197997;28;20109;-77
2022/07/13 06:06:32;;;;;;;;;;;;;;;;;;6199592;28;20033;-77
2022/07/13 06:09:33;;;;;;;5.35;1.98;;;;;;;;;;6200975;28;19905;-77
2022/07/13 06:12:33;;;;;;;;;;;;;;;;;;6199499;28;20476;-77
2022/07/13 06:15:33;;;;;;;3.50;1.80;;;;;;;;;;6215115;28;19906;-77
2022/07/13 06:18:33;;;;;;;;;;;;;;;;;;6198564;28;20382;-76
2022/07/13 06:21:33;;;;;;;3.97;2.40;;;;;;;;;;6193391;28;19913;-77
2022/07/13 06:24:33;;;;;;;;;;;;;;;;;;6186568;28;20025;-77
2022/07/13 06:27:34;;;;;;;2.15;1.52;;;;;;;;;;6207118;28;20353;-77
2022/07/13 06:30:34;;;;;;;;;;;;;;;;;;6205442;28;20061;-77
2022/07/13 06:33:35;;;;;;;4.35;1.88;;;;;;;;;;6209604;28;19918;-77
2022/07/13 06:36:38;;;;;;;2.63;1.98;;;;;;;;;;6203619;28;20053;-77
2022/07/13 06:39:38;;;;;;;4.30;1.65;;;;;;;;;;6203613;28;20030;-77
2022/07/13 06:42:39;;;;;;;3.47;1.63;;;;;;;;;;6202164;28;20026;-77
2022/07/13 06:45:39;;;;;;;3.47;1.58;;;;;;;;;;6194196;28;20118;-78
2022/07/13 06:48:40;;;;;;;3.80;1.80;;;;;;;;;;6205914;28;20382;-77
2022/07/13 06:51:40;;;;;;;7.57;1.80;;;;;;;;;;6202364;28;20037;-77
2022/07/13 06:54:40;;;;;;;3.88;1.55;;;;;;;;;;6203359;28;20029;-77
2022/07/13 06:57:41;;;;;;;1.80;1.30;;;;;;;;;;6198750;28;20057;-77
2022/07/13 07:00:41;;;;;;;2.92;1.65;;;;;;;;;;6197516;28;20029;-77
2022/07/13 07:03:41;;;;;;;4.97;1.90;;;;;;;;;;6210871;28;20018;-78
2022/07/13 07:06:41;;;;;;;3.80;1.20;;;;;;;;;;6212499;28;20052;-78
2022/07/13 07:09:42;;;;;;;2.22;1.23;;;;;;;;;;6197688;28;20030;-78
2022/07/13 07:12:42;;;;;;;2.27;0.90;;;;;;;;;;6198307;28;20025;-75
2022/07/13 07:15:42;;;;;;;1.27;1.05;;;;;;;;;;6197981;28;20030;-74
2022/07/13 07:18:42;;;;;;;1.80;0.83;;;;;;;;;;6193666;28;20131;-74
2022/07/13 07:21:43;;;;;;;1.00;0.87;;;;;;;;;;6199140;28;20285;-75
2022/07/13 07:24:43;;;;;;;2.13;1.33;;;;;;;;;;6189656;28;20014;-76
2022/07/13 07:27:43;;;;;;;4.37;1.23;;;;;;;;;;6196369;28;20268;-77
2022/07/13 07:30:43;;;;;;;2.03;1.03;;;;;;;;;;6210795;28;20057;-76
2022/07/13 07:33:43;;;;;;;5.63;1.73;;;;;;;;;;6205455;28;20054;-76
2022/07/13 07:36:44;;;;;;;1.47;1.00;;;;;;;;;;6215276;28;20022;-77
2022/07/13 07:39:45;;;;;;;2.25;1.27;;;;;;;;;;6212947;28;20169;-76
2022/07/13 07:42:45;;;;;;;1.40;1.02;;;;;;;;;;6200414;28;20490;-76
2022/07/13 07:45:46;;;;;;;2.05;1.00;;;;;;;;;;6201144;28;20081;-77
2022/07/13 07:48:46;;;;;;;2.87;1.13;;;;;;;;;;6210333;28;20065;-76
2022/07/13 07:51:46;;;;;;;1.70;1.10;;;;;;;;;;6203928;28;20025;-76
2022/07/13 07:54:47;;;;;;;1.17;1.13;;;;;;;;;;6200455;28;20053;-76
2022/07/13 07:57:49;;;;;;;2.28;1.10;;;;;;;;;;6204984;28;20014;-76
2022/07/13 08:00:50;;;;;;;2.35;0.80;;;;;;;;;;6197463;28;20058;-77
2022/07/13 08:03:50;;;;;;;2.07;1.20;;;;;;;;;;6209497;28;20020;-76
2022/07/13 08:06:50;;;;;;;2.85;1.00;;;;;;;;;;6197058;28;20018;-76
2022/07/13 08:09:50;;;;;;;2.23;1.00;;;;;;;;;;6202825;28;20015;-76
2022/07/13 08:12:51;;;;;;;1.07;1.07;;;;;;;;;;6201345;28;20033;-77
2022/07/13 08:15:51;;;;;;;3.72;1.13;;;;;;;;;;6201375;28;20022;-77
2022/07/13 08:18:51;;;;;;;1.90;1.10;;;;;;;;;;6202247;28;20026;-77
2022/07/13 08:21:51;;;;;;;4.60;1.37;;;;;;;;;;6202024;28;20077;-77
2022/07/13 08:24:51;;;;;;;1.17;0.93;;;;;;;;;;6202785;28;20801;-77
2022/07/13 08:27:52;;;;;;;1.23;0.90;;;;;;;;;;6203019;28;20023;-77
2022/07/13 08:30:52;;;;;;;3.73;1.17;;;;;;;;;;6201771;28;20026;-76
2022/07/13 08:40:40;;;;;;;3.80;1.38;;;;;;;;;;6206367;28;20034;-77
2022/07/13 08:43:40;;;;;;;3.42;1.17;;;;;;;;;;6202202;28;20022;-77
2022/07/13 08:46:41;;;;;;;1.30;1.10;;;;;;;;;;6210726;28;20025;-77
2022/07/13 08:49:42;;;;;;;1.58;1.13;;;;;;;;;;6210264;28;20010;-77
2022/07/13 08:52:42;;;;;;;3.58;1.20;;;;;;;;;;6203172;28;20139;-77
2022/07/13 08:55:42;;;;;;;1.83;1.20;;;;;;;;;;6201513;28;20022;-77
2022/07/13 08:58:42;;;;;;;2.53;1.30;;;;;;;;;;6201714;28;20293;-77
2022/07/13 09:01:43;;;;;;;;;;;;;;;;;;6207929;28;20009;-77
2022/07/13 09:04:43;;;;;;;2.67;1.40;;;;;;;;;;6212603;28;19913;-77
2022/07/13 09:07:44;;;;;;;;;;;;;;;;;;6204479;28;20033;-77
2022/07/13 09:10:53;;;;;;;5.18;1.02;;;;;;;;;;6217710;28;19909;-77
2022/07/13 09:13:55;;;;;;;2.92;1.13;;;;;;;;;;6204713;28;20021;-77
2022/07/13 09:16:56;;;;;;;4.32;1.00;;;;;;;;;;6206106;28;20106;-77
2022/07/13 09:19:57;;;;;;;1.00;0.93;;;;;;;;;;6200456;28;20030;-77
2022/07/13 09:22:58;;;;;;;2.63;1.08;;;;;;;;;;6200806;28;20265;-77
2022/07/13 09:25:59;;;;;;;3.13;1.10;;;;;;;;;;6201670;28;20359;-77
2022/07/13 09:28:59;;;;;;;1.88;1.15;;;;;;;;;;6198409;28;20013;-78
2022/07/13 09:32:04;;;;;;;1.00;0.80;;;;;;;;;;6197201;28;20022;-77
2022/07/13 09:35:05;;;;;;;2.28;0.98;;;;;;;;;;6194065;28;20116;-77
2022/07/13 09:38:05;;;;;;;1.95;0.82;;;;;;;;;;6195275;28;20541;-75
2022/07/13 09:41:14;;;;;;;1.20;0.90;;;;;;;;;;6207938;28;20027;-77
2022/07/13 09:47:34;;;;;;;1.20;1.02;;;;;;;;;;6197658;28;20034;-75
2022/07/13 09:50:41;;;;;;;0.93;0.80;;;;;;;;;;6195966;28;20573;-78
2022/07/13 09:53:41;;;;;;;2.72;0.98;;;;;;;;;;6199467;28;20019;-76
2022/07/13 09:56:45;;;;;;;1.08;0.68;;;;;;;;;;6199249;28;20379;-76
2022/07/13 09:59:45;;;;;;;0.80;0.80;;;;;;;;;;6209599;28;20470;-77
2022/07/13 10:02:47;;;;;;;3.40;1.53;;;;;;;;;;6202506;28;20049;-77
2022/07/13 10:05:47;;;;;;;1.55;0.50;;;;;;;;;;6203192;28;20042;-77
2022/07/13 10:08:48;;;;;;;2.90;1.03;;;;;;;;;;6201958;28;20773;-77
2022/07/13 10:11:48;;;;;;;1.63;1.08;;;;;;;;;;6208428;28;20041;-77
2022/07/13 10:14:50;;;;;;;2.37;0.90;;;;;;;;;;6208987;28;20045;-77
2022/07/13 10:17:51;;;;;;;3.92;1.10;;;;;;;;;;6204871;28;20884;-78
2022/07/13 10:21:01;;;;;;;0.85;0.70;;;;;;;;;;6202286;28;20069;-77
2022/07/13 10:24:01;;;;;;;3.07;0.90;;;;;;;;;;6203064;28;20041;-76
2022/07/13 10:27:21;;;;;;;0.67;0.50;;;;;;;;;;6212266;28;20316;-77
2022/07/13 10:30:23;;;;;;;5.65;1.10;;;;;;;;;;6215319;28;20029;-77
2022/07/13 10:33:27;;;;;;;3.03;0.90;;;;;;;;;;6200521;28;20049;-77
2022/07/13 10:36:45;;;;;;;1.15;0.80;;;;;;;;;;6209015;28;20022;-77
2022/07/13 10:40:04;;;;;;;2.13;1.08;;;;;;;;;;6197104;28;20033;-75
2022/07/13 10:43:05;;;;;;;1.98;0.80;;;;;;;;;;6207487;28;20390;-77
2022/07/13 10:46:05;;;;;;;1.97;0.87;;;;;;;;;;6211792;28;20030;-76
2022/07/13 10:49:05;;;;;;;;;;;;;;;;;;6205593;28;20037;-76
2022/07/13 10:52:21;;;;;;;1.45;0.70;;;;;;;;;;6201855;28;20000;-77
2022/07/13 10:55:21;;;;;;;4.82;0.82;;;;;;;;;;6203279;28;20022;-77
2022/07/13 10:58:30;;;;;;;2.28;0.57;;;;;;;;;;6205569;28;20032;-77
2022/07/13 11:01:32;;;;;;;1.67;0.75;;;;;;;;;;6192414;28;20029;-77
2022/07/13 11:04:44;;;;;;;1.52;0.68;;;;;;;;;;6195322;28;20485;-77
2022/07/13 11:07:45;;;;;;;2.10;0.70;;;;;;;;;;6197350;28;20018;-77
2022/07/13 11:11:06;;;;;;;2.30;0.63;;;;;;;;;;6206708;28;20536;-77
2022/07/13 11:14:26;;;;;;;2.88;0.93;;;;;;;;;;6216103;28;20037;-77
2022/07/13 11:17:27;;;;;;;0.85;0.70;;;;;;;;;;6199002;28;20030;-77
2022/07/13 11:20:35;;;;;;;3.55;0.60;;;;;;;;;;6199093;28;20483;-77
2022/07/13 11:27:06;;;;;;;0.73;0.60;;;;;;;;;;6204072;28;20027;-76
2022/07/13 11:30:07;;;;;;;0.70;0.68;;;;;;;;;;6199187;28;20019;-76
2022/07/13 11:33:07;;;;;;;;;;;;;;;;;;6200764;28;20100;-76
2022/07/13 11:36:08;;;;;;;0.77;0.75;;;;;;;;;;6214215;28;20366;-77
2022/07/13 11:39:08;;;;;;;;;;;;;;;;;;6207202;28;20034;-77
2022/07/13 11:42:08;;;;;;;1.20;1.00;;;;;;;;;;6203025;28;19945;-76
2022/07/13 11:45:08;;;;;;;;;;;;;;;;;;6203466;28;20441;-76
2022/07/13 11:48:12;;;;;;;0.63;0.50;;;;;;;;;;6211143;28;19948;-76
2022/07/13 11:51:13;;;;;;;0.73;0.73;;;;;;;;;;6200835;28;20056;-77
2022/07/13 11:54:15;;;;;;;1.15;1.00;;;;;;;;;;6197380;28;20026;-76
2022/07/13 11:57:17;;;;;;;6.18;1.20;;;;;;;;;;6201635;28;20026;-77
2022/07/13 12:00:18;;;;;;;1.77;0.90;;;;;;;;;;6199492;28;20474;-76
2022/07/13 12:03:18;;;;;;;;;;;;;;;;;;6192330;28;20019;-76
2022/07/13 12:06:18;;;;;;;2.60;0.80;;;;;;;;;;6198973;28;19906;-76
2022/07/13 12:09:18;;;;;;;;;;;;;;;;;;6200360;28;20018;-76
2022/07/13 12:12:20;;;;;;;1.10;1.00;;;;;;;;;;6209155;28;19913;-76
2022/07/13 12:15:20;;;;;;;2.92;0.80;;;;;;;;;;6201938;28;20034;-76
2022/07/13 12:18:20;;;;;;;;;;;;;;;;;;6209897;28;20037;-76
2022/07/13 12:21:21;;;;;;;2.05;0.75;;;;;;;;;;6197970;28;20013;-77
2022/07/13 12:24:21;;;;;;;1.80;0.90;;;;;;;;;;6187618;28;20023;-76
2022/07/13 12:27:25;;;;;;;1.77;0.80;;;;;;;;;;6190870;28;20018;-76
2022/07/13 12:30:26;;;;;;;1.23;1.00;;;;;;;;;;6203527;28;20010;-76
2022/07/13 12:33:38;;;;;;;1.48;0.88;;;;;;;;;;6191557;28;20095;-76
2022/07/13 12:36:45;;;;;;;1.92;0.82;;;;;;;;;;6195059;28;20037;-76
2022/07/13 12:39:46;;;;;;;3.17;0.82;;;;;;;;;;6192915;28;20030;-76
2022/07/13 12:42:46;;;;;;;0.90;0.90;;;;;;;;;;6194461;28;20027;-76
2022/07/13 12:45:51;;;;;;;3.63;0.75;;;;;;;;;;6201581;28;20033;-76
2022/07/13 12:48:59;;;;;;;1.33;0.80;;;;;;;;;;6215445;28;20590;-76
2022/07/13 12:52:09;;;;;;;2.92;0.80;;;;;;;;;;6203840;28;20049;-76
2022/07/13 12:55:10;;;;;;;0.70;0.70;;;;;;;;;;6202080;28;20489;-76
2022/07/13 12:58:11;;;;;;;2.70;0.80;;;;;;;;;;6202509;28;20049;-76
2022/07/13 13:01:25;;;;;;;1.80;1.02;;;;;;;;;;6201806;28;20470;-76
2022/07/13 13:04:25;;;;;;;0.70;0.63;;;;;;;;;;6200469;28;20108;-76
2022/07/13 13:07:26;;;;;;;3.00;1.10;;;;;;;;;;6200360;28;20006;-77
2022/07/13 13:10:26;;;;;;;2.17;1.10;;;;;;;;;;6201829;28;20092;-76
2022/07/13 13:13:26;;;;;;;0.80;0.60;;;;;;;;;;6205397;28;20057;-76
2022/07/13 13:16:26;;;;;;;1.23;1.13;;;;;;;;;;6201468;28;20061;-76
2022/07/13 13:19:27;;;;;;;0.87;0.80;;;;;;;;;;6214648;28;20030;-76
2022/07/13 13:22:27;;;;;;;1.17;0.90;;;;;;;;;;6202653;28;20152;-76
2022/07/13 13:25:27;;;;;;;1.98;0.80;;;;;;;;;;6202209;28;20027;-76
2022/07/13 13:28:27;;;;;;;1.07;0.90;;;;;;;;;;6203447;28;20033;-76
2022/07/13 13:31:28;;;;;;;2.40;1.23;;;;;;;;;;6199438;28;20030;-76
2022/07/13 13:34:28;;;;;;;1.75;1.50;;;;;;;;;;6201802;28;20051;-76
2022/07/13 13:37:28;;;;;;;0.90;0.90;;;;;;;;;;6201707;28;20027;-76
2022/07/13 13:40:28;;;;;;;0.93;0.73;;;;;;;;;;6202128;28;20026;-77
2022/07/13 13:43:28;;;;;;;1.00;0.90;;;;;;;;;;6201156;28;20028;-76
2022/07/13 13:46:29;;;;;;;2.47;1.13;;;;;;;;;;6201082;28;20084;-77
2022/07/13 13:49:29;;;;;;;2.70;0.97;;;;;;;;;;6200275;28;20146;-76
2022/07/13 13:52:29;;;;;;;1.23;0.90;;;;;;;;;;6201012;28;20273;-76
2022/07/13 13:55:29;;;;;;;5.20;1.80;;;;;;;;;;6200532;28;20022;-76
2022/07/13 13:58:30;;;;;;;1.87;0.87;;;;;;;;;;6198745;28;20032;-76
2022/07/13 14:01:30;;;;;;;2.07;0.60;;;;;;;;;;6198650;28;20014;-76
2022/07/13 14:04:30;;;;;;;3.30;0.93;;;;;;;;;;6198998;28;20382;-77
2022/07/13 14:07:31;;;;;;;0.88;0.73;;;;;;;;;;6199804;28;20026;-76
2022/07/13 14:10:31;;;;;;;1.98;1.00;;;;;;;;;;6198553;28;20562;-76
2022/07/13 14:13:31;;;;;;;1.33;0.85;;;;;;;;;;6213870;28;20029;-76
2022/07/13 14:16:33;;;;;;;2.03;1.03;;;;;;;;;;6199145;28;20038;-76
2022/07/13 14:19:33;;;;;;;1.98;0.90;;;;;;;;;;6199540;28;20022;-76
2022/07/13 14:22:34;;;;;;;1.17;0.97;;;;;;;;;;6200533;28;20023;-77
2022/07/13 14:25:34;;;;;;;1.27;0.90;;;;;;;;;;6199864;28;20057;-77
2022/07/13 14:28:34;;;;;;;3.42;0.80;;;;;;;;;;6202311;28;20026;-77
2022/07/13 14:31:35;;;;;;;3.87;1.30;;;;;;;;;;6201394;28;20035;-77
2022/07/13 14:34:35;;;;;;;2.40;0.70;;;;;;;;;;6198814;28;20039;-76
2022/07/13 14:37:37;;;;;;;2.00;1.00;;;;;;;;;;6199382;28;20029;-77
2022/07/13 14:40:42;;;;;;;1.70;0.90;;;;;;;;;;6202466;28;20109;-76
2022/07/13 14:43:42;;;;;;;3.00;1.00;;;;;;;;;;6199489;28;20064;-77
2022/07/13 14:46:42;;;;;;;1.37;0.83;;;;;;;;;;6197284;28;20022;-77
2022/07/13 14:49:42;;;;;;;2.27;1.10;;;;;;;;;;6197236;28;20018;-77
2022/07/13 14:52:42;;;;;;;0.93;0.93;;;;;;;;;;6197624;28;20029;-76
2022/07/13 14:55:43;;;;;;;1.20;0.67;;;;;;;;;;6198610;28;20018;-76
2022/07/13 14:58:43;;;;;;;1.00;0.90;;;;;;;;;;6191189;28;20041;-77
2022/07/13 15:01:43;;;;;;;1.77;1.00;;;;;;;;;;6197168;28;20099;-77
2022/07/13 15:04:44;;;;;;;1.08;0.80;;;;;;;;;;6199086;28;20358;-77
2022/07/13 15:07:45;;;;;;;1.00;0.70;;;;;;;;;;6201064;28;20032;-77
2022/07/13 15:10:45;;;;;;;1.25;0.88;;;;;;;;;;6199219;28;20014;-78
2022/07/13 15:13:45;;;;;;;1.67;0.70;;;;;;;;;;6205959;28;20040;-77
2022/07/13 15:16:46;;;;;;;4.53;1.00;;;;;;;;;;6204419;28;20014;-77
2022/07/13 15:19:46;;;;;;;1.17;0.90;;;;;;;;;;6195098;28;20018;-77
2022/07/13 15:22:46;;;;;;;3.23;1.30;;;;;;;;;;6214502;28;20045;-77
2022/07/13 15:25:46;;;;;;;1.60;1.00;;;;;;;;;;6196678;28;20014;-77
2022/07/13 15:28:47;;;;;;;2.30;1.00;;;;;;;;;;6197807;28;20112;-77
2022/07/13 15:31:47;;;;;;;0.70;0.70;;;;;;;;;;6198859;28;20022;-77
2022/07/13 15:34:47;;;;;;;1.40;1.10;;;;;;;;;;6196933;28;20050;-77
2022/07/13 15:37:47;;;;;;;1.90;0.90;;;;;;;;;;6196774;28;20026;-77
2022/07/13 15:44:06;;;;;;;2.83;1.23;;;;;;;;;;6196339;28;20494;-77
2022/07/13 15:47:06;;;;;;;1.20;1.10;;;;;;;;;;6198061;28;20021;-77
2022/07/13 15:50:07;;;;;;;1.07;1.00;;;;;;;;;;6199084;28;20021;-77
2022/07/13 15:53:07;;;;;;;1.20;1.02;;;;;;;;;;6204359;28;20270;-77
2022/07/13 15:56:07;;;;;;;2.75;1.02;;;;;;;;;;6197250;28;20019;-77
2022/07/13 15:59:08;;;;;;;4.18;1.30;;;;;;;;;;6195331;28;20045;-77
2022/07/13 16:02:08;;;;;;;2.30;0.60;;;;;;;;;;6198416;28;20034;-77
2022/07/13 16:05:08;;;;;;;2.47;1.20;;;;;;;;;;6198541;28;20501;-77
2022/07/13 16:08:10;;;;;;;;;;;;;;;;;;6222556;28;20390;-77
2022/07/13 16:11:10;;;;;;;1.25;0.88;;;;;;;;;;6213241;28;19949;-77
2022/07/13 16:14:10;;;;;;;;;;;;;;;;;;6203572;28;20569;-77
2022/07/13 16:17:10;;;;;;;6.90;1.47;;;;;;;;;;6214281;28;20400;-76
2022/07/13 16:20:10;;;;;;;;;;;;;;;;;;6198067;28;20168;-79
2022/07/13 16:23:11;;;;;;;4.97;2.25;;;;;;;;;;6200807;28;19922;-77
2022/07/13 16:26:11;;;;;;;;;;;;;;;;;;6203217;28;20018;-77
2022/07/13 16:29:12;;;;;;;7.07;3.75;;;;;;;;;;6199272;28;19948;-77
2022/07/13 16:32:12;;;;;;;;;;;;;;;;;;6202332;28;20026;-76
2022/07/13 16:35:13;;;;;;;4.75;2.75;;;;;;;;;;6202837;28;19921;-76
2022/07/13 16:38:13;;;;;;;;;;;;;;;;;;6196648;28;20034;-77
2022/07/13 16:41:13;;;;;;;3.40;1.63;;;;;;;;;;6203149;28;19918;-76
2022/07/13 16:44:14;;;;;;;;;;;;;;;;;;6203072;28;20026;-77
2022/07/13 16:47:16;;;;;;;2.33;1.60;;;;;;;;;;6217847;28;19913;-77
2022/07/13 16:50:16;;;;;;;3.80;2.40;;;;;;;;;;6206392;28;20042;-77
2022/07/13 16:53:16;;;;;;;3.90;2.47;;;;;;;;;;6212509;28;20028;-77
2022/07/13 16:56:16;;;;;;;1.63;1.53;;;;;;;;;;6196142;28;20389;-77
2022/07/13 16:59:17;;;;;;;2.73;1.80;;;;;;;;;;6201341;28;20076;-77
2022/07/13 17:02:17;;;;;;;1.80;1.50;;;;;;;;;;6204146;28;20023;-77
2022/07/13 17:05:17;;;;;;;2.93;2.00;;;;;;;;;;6206248;28;20390;-77
2022/07/13 17:08:17;;;;;;;3.03;1.60;;;;;;;;;;6210330;28;20053;-77
2022/07/13 17:11:18;;;;;;;3.50;2.13;;;;;;;;;;6201061;28;20026;-76
2022/07/13 17:14:19;;;;;;;1.60;1.27;;;;;;;;;;6203626;28;20125;-76
2022/07/13 17:17:19;;;;;;;1.38;1.15;;;;;;;;;;6205713;28;20037;-77
2022/07/13 17:20:19;;;;;;;3.42;1.52;;;;;;;;;;6201466;28;20045;-77
2022/07/13 17:23:20;;;;;;;1.65;1.17;;;;;;;;;;6196885;28;20072;-77
2022/07/13 17:26:21;;;;;;;1.57;1.37;;;;;;;;;;6206810;28;20519;-77
2022/07/13 17:29:21;;;;;;;2.35;1.52;;;;;;;;;;6203034;28;20319;-76
2022/07/13 17:32:21;;;;;;;2.17;1.27;;;;;;;;;;6210034;28;20022;-76
2022/07/13 17:35:22;;;;;;;2.37;1.43;;;;;;;;;;6201135;28;20038;-77
2022/07/13 17:38:22;;;;;;;1.53;1.13;;;;;;;;;;6200826;28;20094;-77
2022/07/13 17:41:22;;;;;;;3.73;1.40;;;;;;;;;;6200162;28;20026;-77
2022/07/13 17:44:23;;;;;;;2.07;1.30;;;;;;;;;;6199601;28;20014;-77
2022/07/13 17:47:23;;;;;;;4.68;1.73;;;;;;;;;;6200042;28;20054;-77
2022/07/13 17:50:24;;;;;;;2.47;1.20;;;;;;;;;;6200222;28;20076;-77
2022/07/13 17:53:24;;;;;;;1.60;1.10;;;;;;;;;;6206049;28;20216;-77
2022/07/13 17:56:24;;;;;;;2.47;1.10;;;;;;;;;;6199497;28;20554;-77
2022/07/13 17:59:24;;;;;;;4.53;1.37;;;;;;;;;;6197373;28;20549;-76
2022/07/13 18:02:25;;;;;;;3.47;1.17;;;;;;;;;;6194281;28;20023;-77
2022/07/13 18:05:25;;;;;;;5.03;1.33;;;;;;;;;;6198020;28;20034;-77
2022/07/13 18:08:25;;;;;;;5.50;1.53;;;;;;;;;;6197713;28;20010;-77
2022/07/13 18:11:25;;;;;;;2.37;1.33;;;;;;;;;;6215336;28;20170;-77
2022/07/13 18:14:27;;;;;;;1.60;1.40;;;;;;;;;;6199888;28;20033;-76
2022/07/13 18:17:27;;;;;;;2.35;1.70;;;;;;;;;;6204909;28;20034;-76
2022/07/13 18:20:29;;;;;;;3.07;1.70;;;;;;;;;;6199512;28;20500;-76
2022/07/13 18:26:48;;;;;;;2.72;1.83;;;;;;;;;;6203943;28;20482;-77
2022/07/13 18:29:49;;;;;;;1.30;1.15;;;;;;;;;;6199441;28;20082;-77
2022/07/13 18:32:50;;;;;;;5.17;1.73;;;;;;;;;;6198614;28;20042;-77